createdAt,value
2022-11-18T00:02:59.809Z,12.00
2022-11-18T00:07:01.139Z,12.70
2022-11-18T00:11:09.186Z,12.80
2022-11-18T00:15:10.322Z,12.70
2022-11-18T00:19:11.621Z,12.80
2022-11-18T00:23:12.739Z,12.70
2022-11-18T00:27:13.828Z,12.70
2022-11-18T00:31:14.946Z,12.60
2022-11-18T00:35:16.056Z,12.80
2022-11-18T00:39:19.358Z,13.00
2022-11-18T00:43:20.908Z,13.30
2022-11-18T00:47:22.012Z,13.40
2022-11-18T00:51:23.013Z,13.10
2022-11-18T00:55:23.977Z,12.90
2022-11-18T00:59:25.267Z,12.80
2022-11-18T01:03:27.777Z,13.20
2022-11-18T01:07:28.900Z,13.20
2022-11-18T01:11:48.488Z,12.60
2022-11-18T01:15:53.308Z,12.30
2022-11-18T01:19:54.292Z,12.70
2022-11-18T01:23:55.314Z,13.00
2022-11-18T01:27:56.573Z,13.30
2022-11-18T01:36:00.963Z,13.30
2022-11-18T01:40:03.393Z,13.20
2022-11-18T01:44:07.701Z,13.10
2022-11-18T01:48:12.510Z,12.80
2022-11-18T01:52:14.480Z,12.90
2022-11-18T01:56:22.141Z,12.90
2022-11-18T02:00:23.214Z,12.50
2022-11-18T02:04:25.125Z,12.50
2022-11-18T02:08:28.148Z,12.80
2022-11-18T02:12:30.036Z,13.00
2022-11-18T02:16:44.241Z,12.90
2022-11-18T02:20:47.479Z,12.90
2022-11-18T02:24:55.373Z,12.30
2022-11-18T02:29:06.299Z,12.30
2022-11-18T02:33:14.242Z,12.60
2022-11-18T02:37:19.392Z,12.40
2022-11-18T02:41:24.242Z,11.70
2022-11-18T02:45:26.679Z,11.80
2022-11-18T02:49:34.659Z,11.90
2022-11-18T02:53:39.493Z,12.00
2022-11-18T02:57:43.292Z,12.40
2022-11-18T03:01:44.604Z,12.30
2022-11-18T03:05:58.862Z,12.50
2022-11-18T03:10:01.080Z,12.50
2022-11-18T03:14:09.065Z,12.30
2022-11-18T03:18:28.385Z,11.90
2022-11-18T03:22:36.145Z,11.90
2022-11-18T03:26:40.899Z,12.20
2022-11-18T03:30:48.504Z,12.30
2022-11-18T03:34:53.447Z,12.40
2022-11-18T03:38:58.432Z,12.30
2022-11-18T03:43:09.102Z,12.50
2022-11-18T03:47:13.935Z,12.50
2022-11-18T03:51:18.924Z,12.10
2022-11-18T03:55:23.762Z,11.60
2022-11-18T03:59:37.540Z,11.60
2022-11-18T04:03:38.923Z,10.50
2022-11-18T04:07:59.532Z,10.60
2022-11-18T04:12:04.374Z,10.90
2022-11-18T04:16:08.632Z,9.90
2022-11-18T04:20:13.597Z,10.90
2022-11-18T04:24:15.250Z,9.90
2022-11-18T04:28:16.259Z,9.90
2022-11-18T04:32:17.388Z,10.50
2022-11-18T04:36:19.544Z,11.80
2022-11-18T04:40:20.597Z,10.70
2022-11-18T04:44:33.041Z,10.40
2022-11-18T04:48:34.083Z,11.70
2022-11-18T04:52:35.183Z,12.00
2022-11-18T04:56:36.729Z,12.40
2022-11-18T05:00:37.771Z,12.60
2022-11-18T05:04:38.956Z,12.50
2022-11-18T05:08:40.392Z,12.70
2022-11-18T05:12:50.643Z,12.80
2022-11-18T05:16:52.357Z,12.80
2022-11-18T05:20:53.355Z,12.20
2022-11-18T05:24:54.393Z,12.30
2022-11-18T05:29:00.965Z,12.40
2022-11-18T05:33:02.442Z,12.10
2022-11-18T05:37:05.763Z,12.00
2022-11-18T05:41:08.041Z,12.70
2022-11-18T05:45:09.275Z,12.50
2022-11-18T05:49:10.545Z,12.20
2022-11-18T05:53:11.769Z,12.30
2022-11-18T05:57:12.768Z,12.20
2022-11-18T06:01:26.532Z,12.60
2022-11-18T06:05:27.504Z,12.80
2022-11-18T06:09:31.668Z,12.70
2022-11-18T06:13:39.867Z,12.60
2022-11-18T06:17:44.714Z,12.60
2022-11-18T06:21:46.615Z,12.30
2022-11-18T06:25:48.317Z,12.50
2022-11-18T06:29:49.276Z,12.70
2022-11-18T06:33:50.414Z,12.70
2022-11-18T06:37:51.533Z,12.90
2022-11-18T06:41:53.821Z,12.90
2022-11-18T06:46:18.182Z,12.60
2022-11-18T06:50:19.152Z,12.60
2022-11-18T06:54:20.573Z,13.00
2022-11-18T06:58:21.683Z,13.00
2022-11-18T07:02:22.660Z,13.00
2022-11-18T07:06:26.889Z,11.50
2022-11-18T07:10:27.944Z,11.10
2022-11-18T07:14:30.016Z,12.30
2022-11-18T07:18:32.679Z,12.70
2022-11-18T07:22:33.645Z,12.80
2022-11-18T07:26:35.354Z,13.00
2022-11-18T07:30:36.341Z,13.10
2022-11-18T07:34:37.360Z,13.20
2022-11-18T07:38:38.892Z,13.20
2022-11-18T07:42:42.891Z,12.00
2022-11-18T07:46:44.062Z,11.00
2022-11-18T07:50:47.296Z,11.70
2022-11-18T07:54:48.252Z,12.40
2022-11-18T07:58:53.829Z,12.60
2022-11-18T08:02:54.843Z,12.80
2022-11-18T08:06:56.058Z,12.90
2022-11-18T08:10:58.454Z,12.40
2022-11-18T08:14:59.482Z,13.20
2022-11-18T08:19:00.651Z,13.00
2022-11-18T08:23:01.891Z,13.20
2022-11-18T08:27:02.884Z,12.90
2022-11-18T08:31:19.940Z,12.50
2022-11-18T08:35:21.244Z,12.50
2022-11-18T08:39:22.373Z,12.60
2022-11-18T08:43:23.412Z,13.50
2022-11-18T08:47:24.545Z,13.20
2022-11-18T08:51:25.836Z,12.30
2022-11-18T08:55:26.829Z,12.60
2022-11-18T08:59:28.086Z,13.00
2022-11-18T09:03:31.948Z,13.10
2022-11-18T09:07:32.297Z,12.70
2022-11-18T09:11:34.241Z,13.50
2022-11-18T09:15:35.313Z,13.50
2022-11-18T09:19:52.319Z,13.20
2022-11-18T09:23:40.053Z,13.20
2022-11-18T09:27:41.089Z,11.70
2022-11-18T09:31:42.100Z,12.20
2022-11-18T09:35:43.899Z,11.70
2022-11-18T09:39:44.884Z,12.30
2022-11-18T09:44:16.942Z,13.00
2022-11-18T09:48:23.371Z,13.10
2022-11-18T09:52:37.602Z,12.50
2022-11-18T09:56:40.788Z,13.60
2022-11-18T10:00:44.221Z,13.90
2022-11-18T10:04:45.343Z,13.70
2022-11-18T10:09:05.631Z,13.60
2022-11-18T10:13:30.587Z,14.00
2022-11-18T10:17:50.846Z,12.80
2022-11-18T10:22:01.663Z,12.50
2022-11-18T10:26:02.767Z,13.30
2022-11-18T10:30:16.728Z,13.40
2022-11-18T10:34:19.203Z,12.70
2022-11-18T10:38:21.124Z,11.80
2022-11-18T10:42:45.410Z,11.50
2022-11-18T10:46:46.654Z,12.70
2022-11-18T10:50:55.286Z,12.50
2022-11-18T10:55:21.057Z,12.70
2022-11-18T10:59:31.996Z,12.20
2022-11-18T11:03:36.796Z,12.20
2022-11-18T11:07:38.184Z,12.40
2022-11-18T11:12:01.645Z,11.90
2022-11-18T11:16:05.845Z,11.80
2022-11-18T11:20:22.770Z,12.80
2022-11-18T11:24:26.444Z,12.50
2022-11-18T11:28:34.651Z,13.20
2022-11-18T11:32:39.537Z,13.00
2022-11-18T11:37:05.830Z,12.90
2022-11-18T11:41:31.931Z,12.50
2022-11-18T11:45:48.996Z,13.20
2022-11-18T11:50:02.999Z,13.30
2022-11-18T11:54:25.806Z,12.80
2022-11-18T11:58:36.786Z,12.80
2022-11-18T12:02:51.089Z,12.80
2022-11-18T12:06:54.453Z,12.10
2022-11-18T12:11:17.557Z,12.80
2022-11-18T12:15:34.435Z,13.30
2022-11-18T12:19:38.435Z,13.10
2022-11-18T12:23:39.577Z,13.30
2022-11-18T12:27:47.552Z,13.00
2022-11-18T12:31:57.124Z,13.20
2022-11-18T12:35:58.601Z,13.50
2022-11-18T12:40:00.997Z,14.30
2022-11-18T12:44:05.223Z,13.80
2022-11-18T12:48:29.372Z,12.80
2022-11-18T12:52:34.377Z,14.00
2022-11-18T12:56:36.878Z,13.50
2022-11-18T13:00:40.144Z,13.40
2022-11-18T13:04:45.844Z,13.10
2022-11-18T13:08:47.949Z,14.20
2022-11-18T13:12:50.228Z,12.30
2022-11-18T13:17:09.772Z,11.50
2022-11-18T13:21:29.615Z,11.30
2022-11-18T13:25:30.810Z,10.50
2022-11-18T13:29:41.453Z,11.30
2022-11-18T13:33:42.945Z,10.50
2022-11-18T13:37:51.038Z,10.70
2022-11-18T13:42:08.120Z,10.90
2022-11-18T13:46:12.971Z,11.30
2022-11-18T13:50:32.589Z,11.90
2022-11-18T13:54:33.919Z,11.90
2022-11-18T13:59:10.249Z,11.30
2022-11-18T14:02:45.819Z,11.30
2022-11-18T14:06:47.450Z,11.10
2022-11-18T14:10:48.601Z,10.40
2022-11-18T14:14:49.947Z,10.80
2022-11-18T14:18:51.819Z,9.90
2022-11-18T14:22:59.853Z,10.40
2022-11-18T14:27:21.155Z,11.10
2022-11-18T14:31:31.844Z,12.00
2022-11-18T14:35:35.091Z,12.40
2022-11-18T14:39:37.656Z,12.50
2022-11-18T14:43:39.228Z,12.20
2022-11-18T14:47:40.748Z,12.40
2022-11-18T14:51:42.169Z,12.50
2022-11-18T14:55:45.025Z,11.70
2022-11-18T14:59:47.048Z,12.40
2022-11-18T15:03:48.317Z,12.40
2022-11-18T15:07:49.907Z,11.60
2022-11-18T15:11:51.084Z,11.60
2022-11-18T15:15:52.133Z,12.40
2022-11-18T15:19:53.735Z,11.40
2022-11-18T15:23:55.218Z,11.70
2022-11-18T15:27:56.889Z,11.20
2022-11-18T15:31:59.378Z,11.10
2022-11-18T15:36:00.570Z,11.50
2022-11-18T15:40:01.616Z,11.40
2022-11-18T15:44:03.057Z,11.50
2022-11-18T15:48:04.634Z,11.10
2022-11-18T15:52:08.688Z,11.20
2022-11-18T15:56:29.333Z,11.60
2022-11-18T16:00:30.507Z,11.40
2022-11-18T16:04:31.658Z,11.90
2022-11-18T16:08:32.723Z,12.00
2022-11-18T16:12:48.953Z,11.80
2022-11-18T16:16:53.412Z,11.60
2022-11-18T16:20:58.514Z,11.50
2022-11-18T16:24:59.619Z,11.50
2022-11-18T16:29:00.847Z,11.40
2022-11-18T16:33:02.052Z,11.20
2022-11-18T16:37:04.440Z,11.10
2022-11-18T16:41:07.641Z,11.00
2022-11-18T16:45:09.864Z,10.80
2022-11-18T16:49:12.967Z,10.80
2022-11-18T16:53:14.347Z,9.90
2022-11-18T16:57:15.457Z,9.10
2022-11-18T17:01:20.938Z,8.60
2022-11-18T17:05:19.474Z,9.60
2022-11-18T17:09:22.922Z,10.40
2022-11-18T17:13:24.070Z,10.60
2022-11-18T17:17:25.119Z,11.10
2022-11-18T17:21:27.986Z,11.10
2022-11-18T17:25:29.414Z,11.00
2022-11-18T17:29:32.371Z,11.00
2022-11-18T17:33:34.416Z,11.00
2022-11-18T17:37:35.811Z,11.00
2022-11-18T17:41:55.393Z,10.90
2022-11-18T17:45:58.276Z,10.70
2022-11-18T17:49:59.448Z,10.70
2022-11-18T17:54:00.681Z,10.60
2022-11-18T17:58:02.041Z,10.70
2022-11-18T18:02:03.282Z,10.20
2022-11-18T18:06:07.109Z,10.10
2022-11-18T18:10:08.807Z,10.00
2022-11-18T18:14:12.847Z,9.60
2022-11-18T18:18:14.200Z,10.10
2022-11-18T18:22:15.348Z,10.70
2022-11-18T18:26:16.809Z,10.60
2022-11-18T18:30:18.070Z,10.80
2022-11-18T18:34:19.787Z,10.60
2022-11-18T18:38:21.091Z,10.60
2022-11-18T18:42:22.424Z,10.50
2022-11-18T18:46:28.199Z,10.00
2022-11-18T18:50:32.067Z,9.90
2022-11-18T18:54:33.585Z,10.20
2022-11-18T18:58:35.436Z,9.60
2022-11-18T19:02:36.761Z,9.60
2022-11-18T19:10:42.990Z,10.50
2022-11-18T19:14:44.639Z,10.20
2022-11-18T19:18:46.032Z,10.60
2022-11-18T19:22:47.109Z,10.50
2022-11-18T19:26:48.292Z,10.70
2022-11-18T19:30:49.384Z,10.70
2022-11-18T19:34:50.467Z,10.50
2022-11-18T19:38:51.795Z,10.40
2022-11-18T19:42:53.064Z,10.20
2022-11-18T19:46:54.309Z,9.40
2022-11-18T19:51:08.480Z,10.20
2022-11-18T19:55:09.799Z,10.80
2022-11-18T19:59:12.074Z,11.10
2022-11-18T20:03:13.273Z,10.50
2022-11-18T20:07:14.637Z,9.80
2022-11-18T20:11:17.510Z,9.70
2022-11-18T20:15:18.837Z,10.70
2022-11-18T20:19:20.466Z,10.90
2022-11-18T20:23:22.044Z,11.30
2022-11-18T20:27:23.192Z,10.60
2022-11-18T20:31:25.776Z,10.20
2022-11-18T20:35:27.083Z,10.20
2022-11-18T20:39:28.593Z,10.30
2022-11-18T20:43:29.856Z,10.30
2022-11-18T20:47:31.037Z,10.10
2022-11-18T20:51:32.155Z,9.60
2022-11-18T20:55:38.102Z,9.90
2022-11-18T20:59:39.589Z,9.40
2022-11-18T21:03:41.759Z,9.40
2022-11-18T21:07:45.702Z,8.80
2022-11-18T21:11:46.963Z,9.30
2022-11-18T21:15:48.080Z,9.40
2022-11-18T21:19:49.616Z,9.80
2022-11-18T21:23:58.431Z,10.50
2022-11-18T21:27:59.909Z,10.50
2022-11-18T21:32:01.376Z,8.50
2022-11-18T21:36:02.672Z,7.50
2022-11-18T21:40:05.059Z,6.60
2022-11-18T21:44:12.347Z,6.50
2022-11-18T21:48:13.583Z,6.50
2022-11-18T21:52:14.845Z,6.70
2022-11-18T21:56:20.064Z,6.30
2022-11-18T22:00:21.161Z,6.90
2022-11-18T22:04:40.805Z,7.30
2022-11-18T22:08:42.199Z,6.10
2022-11-18T22:12:46.119Z,6.20
2022-11-18T22:16:49.125Z,6.50
2022-11-18T22:20:50.408Z,6.00
2022-11-18T22:24:51.523Z,5.60
2022-11-18T22:28:54.436Z,5.30
2022-11-18T22:32:55.782Z,5.30
2022-11-18T22:36:57.025Z,5.30
2022-11-18T22:41:05.981Z,5.10
2022-11-18T22:45:08.234Z,5.20
2022-11-18T22:49:10.893Z,5.40
2022-11-18T22:53:14.683Z,5.60
2022-11-18T22:57:15.954Z,6.30
2022-11-18T23:01:20.517Z,5.20
2022-11-18T23:05:21.734Z,5.00
2022-11-18T23:09:22.913Z,5.70
2022-11-18T23:13:42.402Z,4.90
2022-11-18T23:17:43.536Z,5.80
2022-11-18T23:21:45.531Z,4.10
2022-11-18T23:25:46.817Z,4.20
2022-11-18T23:29:47.797Z,4.40
2022-11-18T23:33:49.540Z,4.30
2022-11-18T23:37:50.571Z,4.20
2022-11-18T23:41:51.548Z,4.20
2022-11-18T23:45:53.479Z,3.90
2022-11-18T23:49:54.436Z,4.00
2022-11-18T23:53:56.765Z,3.80
2022-11-18T23:57:57.735Z,5.70
